Wetterdaten: Woche 01.12.03 - 07.12.03 (KW49)
Datum Zeit Temperatur Luftfeuchte Luftdruck Regenmenge Wind Richtung Taupunkt Windchill
01.12.2003 00:00 3.9 C 99 % 1008.3 hPa 0.0 l/m 2.4 km/h (1 Bft) W-NW 3.8 C 3.5 C
01.12.2003 01:00 4.0 C 100 % 1007.6 hPa 0.0 l/m 4.4 km/h (1 Bft) SO 4.0 C 3.0 C
01.12.2003 02:00 3.9 C 100 % 1007.6 hPa 0.0 l/m 0.4 km/h (0 Bft) N 3.9 C 3.9 C
01.12.2003 03:00 4.0 C 99 % 1007.6 hPa 0.0 l/m 0.5 km/h (0 Bft) SO 3.8 C 4.0 C
01.12.2003 04:00 3.8 C 99 % 1006.6 hPa 0.0 l/m 0.4 km/h (0 Bft) SO 3.7 C 3.7 C
01.12.2003 05:00 3.8 C 99 % 1006.6 hPa 0.0 l/m 0.3 km/h (0 Bft) SO 3.6 C 3.7 C
01.12.2003 06:00 3.8 C 98 % 1006.6 hPa 0.0 l/m 0.0 km/h (0 Bft) N 3.6 C 3.8 C
01.12.2003 07:00 3.7 C 99 % 1006.6 hPa 0.0 l/m 1.8 km/h (1 Bft) O-SO 3.6 C 3.2 C
01.12.2003 08:00 3.5 C 94 % 1006.6 hPa 0.0 l/m 0.2 km/h (0 Bft) O 2.5 C 3.5 C
01.12.2003 09:00 4.1 C 91 % 1006.6 hPa 0.0 l/m 0.3 km/h (0 Bft) O 2.8 C 4.1 C
01.12.2003 10:00 4.8 C 88 % 1007.0 hPa 0.0 l/m 0.2 km/h (0 Bft) O 3.0 C 4.8 C
01.12.2003 11:00 5.5 C 85 % 1006.7 hPa 0.0 l/m 0.7 km/h (0 Bft) O 3.1 C 5.4 C
01.12.2003 12:00 6.6 C 78 % 1006.6 hPa 0.0 l/m 0.7 km/h (0 Bft) N-NO 3.0 C 6.5 C
01.12.2003 13:00 7.3 C 75 % 1006.6 hPa 0.0 l/m 0.3 km/h (0 Bft) N-NO 3.1 C 7.2 C
01.12.2003 14:00 7.3 C 76 % 1006.6 hPa 0.0 l/m 0.1 km/h (0 Bft) N 3.4 C 7.3 C
01.12.2003 15:00 7.0 C 79 % 1006.6 hPa 0.0 l/m 0.0 km/h (0 Bft) N 3.6 C 7.0 C
01.12.2003 16:00 6.0 C 84 % 1006.6 hPa 0.0 l/m 0.5 km/h (0 Bft) NO 3.4 C 6.0 C
01.12.2003 17:00 5.6 C 85 % 1006.3 hPa 0.0 l/m 2.1 km/h (1 Bft) O-SO 3.3 C 5.2 C
01.12.2003 18:00 5.0 C 87 % 1006.6 hPa 0.0 l/m 0.0 km/h (0 Bft) N 3.1 C 5.0 C
01.12.2003 19:00 4.5 C 90 % 1006.8 hPa 0.0 l/m 0.1 km/h (0 Bft) N 3.0 C 4.5 C
01.12.2003 20:00 3.8 C 91 % 1007.5 hPa 0.0 l/m 0.3 km/h (0 Bft) O 2.5 C 3.8 C
01.12.2003 21:00 3.3 C 92 % 1008.1 hPa 0.0 l/m 0.0 km/h (0 Bft) N 2.1 C 3.3 C
01.12.2003 22:00 2.6 C 94 % 1008.7 hPa 0.0 l/m 0.2 km/h (0 Bft) O 1.7 C 2.6 C
01.12.2003 23:00 2.2 C 94 % 1009.1 hPa 0.0 l/m 0.0 km/h (0 Bft) N 1.3 C 2.2 C
02.12.2003 00:00 2.7 C 98 % 1010.3 hPa 0.0 l/m 0.1 km/h (0 Bft) N 2.5 C 2.7 C
02.12.2003 01:00 3.1 C 100 % 1010.8 hPa 0.0 l/m 0.1 km/h (0 Bft) N 3.0 C 3.1 C
02.12.2003 02:00 4.1 C 99 % 1011.7 hPa 0.0 l/m 0.2 km/h (0 Bft) N 4.0 C 4.1 C
02.12.2003 03:00 4.4 C 100 % 1011.8 hPa 0.0 l/m 0.0 km/h (0 Bft) N 4.4 C 4.4 C
02.12.2003 04:00 3.7 C 100 % 1011.8 hPa 0.0 l/m 0.8 km/h (0 Bft) NO 3.8 C 3.7 C
02.12.2003 05:00 3.8 C 100 % 1011.8 hPa 0.0 l/m 2.3 km/h (1 Bft) NO 3.8 C 3.4 C
02.12.2003 06:00 4.2 C 100 % 1011.9 hPa 0.0 l/m 0.0 km/h (0 Bft) N 4.2 C 4.2 C
02.12.2003 07:00 4.8 C 100 % 1012.6 hPa 0.0 l/m 0.1 km/h (0 Bft) N 4.8 C 4.8 C
02.12.2003 08:00 4.9 C 100 % 1012.8 hPa 0.0 l/m 0.0 km/h (0 Bft) N 4.8 C 4.9 C
02.12.2003 09:00 5.1 C 97 % 1012.8 hPa 0.0 l/m 0.3 km/h (0 Bft) N 4.7 C 5.1 C
02.12.2003 10:00 5.5 C 92 % 1013.2 hPa 0.0 l/m 0.7 km/h (0 Bft) N-NW 4.3 C 5.4 C
02.12.2003 11:00 6.2 C 87 % 1013.1 hPa 0.0 l/m 2.4 km/h (1 Bft) N-NW 4.2 C 5.9 C
02.12.2003 12:00 7.0 C 82 % 1012.8 hPa 0.0 l/m 1.1 km/h (0 Bft) W-NW 4.2 C 6.9 C
02.12.2003 13:00 8.9 C 73 % 1012.3 hPa 0.0 l/m 1.6 km/h (1 Bft) N-NW 4.3 C 8.8 C
02.12.2003 14:00 9.6 C 70 % 1011.8 hPa 0.0 l/m 0.7 km/h (0 Bft) NW 4.4 C 9.6 C
02.12.2003 15:00 9.1 C 73 % 1012.0 hPa 0.0 l/m 0.4 km/h (0 Bft) N-NW 4.5 C 9.1 C
02.12.2003 16:00 7.4 C 81 % 1012.9 hPa 0.0 l/m 1.7 km/h (1 Bft) N-NW 4.3 C 7.3 C
02.12.2003 17:00 5.8 C 88 % 1014.1 hPa 0.0 l/m 1.9 km/h (1 Bft) N-NW 3.9 C 5.5 C
02.12.2003 18:00 5.5 C 90 % 1014.9 hPa 0.0 l/m 6.7 km/h (2 Bft) W-NW 4.0 C 4.1 C
02.12.2003 19:00 5.1 C 90 % 1015.2 hPa 0.0 l/m 2.9 km/h (1 Bft) O 3.6 C 4.4 C
02.12.2003 20:00 5.4 C 90 % 1016.1 hPa 0.0 l/m 4.3 km/h (1 Bft) NO 4.0 C 4.6 C
02.12.2003 21:00 6.0 C 87 % 1017.0 hPa 0.0 l/m 6.8 km/h (2 Bft) NW 4.0 C 4.8 C
02.12.2003 22:00 6.4 C 86 % 1017.2 hPa 0.0 l/m 8.6 km/h (2 Bft) W-NW 4.2 C 4.9 C
02.12.2003 23:00 6.2 C 85 % 1018.1 hPa 0.0 l/m 7.7 km/h (2 Bft) W 3.9 C 4.8 C
03.12.2003 00:00 4.3 C 86 % 1018.6 hPa 0.0 l/m 0.2 km/h (0 Bft) W 2.2 C 4.3 C
03.12.2003 01:00 2.8 C 89 % 1019.1 hPa 0.0 l/m 0.0 km/h (0 Bft) N 1.1 C 2.8 C
03.12.2003 02:00 2.3 C 92 % 1019.5 hPa 0.0 l/m 0.0 km/h (0 Bft) N 1.1 C 2.3 C
03.12.2003 03:00 2.0 C 98 % 1020.1 hPa 0.0 l/m 0.0 km/h (0 Bft) N 1.8 C 2.0 C
03.12.2003 04:00 1.8 C 100 % 1020.1 hPa 0.0 l/m 0.0 km/h (0 Bft) N 1.8 C 1.8 C
03.12.2003 05:00 1.7 C 100 % 1020.1 hPa 0.0 l/m 1.0 km/h (0 Bft) W-NW 1.7 C 1.4 C
03.12.2003 06:00 1.7 C 100 % 1020.1 hPa 0.0 l/m 0.4 km/h (0 Bft) NW 1.7 C 1.6 C
03.12.2003 07:00 1.8 C 100 % 1020.1 hPa 0.0 l/m 0.9 km/h (0 Bft) NW 1.8 C 1.6 C
03.12.2003 08:00 1.9 C 100 % 1020.1 hPa 0.0 l/m 0.1 km/h (0 Bft) N 1.9 C 1.9 C
03.12.2003 09:00 2.0 C 100 % 1020.1 hPa 0.0 l/m 0.4 km/h (0 Bft) N 2.0 C 1.9 C
03.12.2003 10:00 2.3 C 100 % 1020.1 hPa 0.0 l/m 0.6 km/h (0 Bft) NW 2.3 C 2.2 C
03.12.2003 11:00 2.7 C 100 % 1020.1 hPa 0.0 l/m 0.2 km/h (0 Bft) N-NW 2.7 C 2.7 C
03.12.2003 12:00 3.2 C 100 % 1019.6 hPa 0.0 l/m 0.0 km/h (0 Bft) N 3.2 C 3.2 C
03.12.2003 13:00 3.5 C 100 % 1019.1 hPa 0.0 l/m 0.0 km/h (0 Bft) N 3.5 C 3.5 C
03.12.2003 14:00 3.9 C 100 % 1018.7 hPa 0.0 l/m 0.0 km/h (0 Bft) N 3.9 C 3.9 C
03.12.2003 15:00 4.0 C 100 % 1018.1 hPa 0.0 l/m 0.3 km/h (0 Bft) N 4.0 C 3.9 C
03.12.2003 16:00 3.9 C 100 % 1018.1 hPa 0.0 l/m 0.8 km/h (0 Bft) NO 3.8 C 3.7 C
03.12.2003 17:00 3.6 C 100 % 1018.1 hPa 0.0 l/m 0.5 km/h (0 Bft) W-NW 3.6 C 3.5 C
03.12.2003 18:00 3.4 C 99 % 1018.5 hPa 0.0 l/m 0.1 km/h (0 Bft) N 3.2 C 3.4 C
03.12.2003 19:00 3.2 C 100 % 1018.3 hPa 0.0 l/m 0.5 km/h (0 Bft) N-NW 3.2 C 3.2 C
03.12.2003 20:00 3.1 C 100 % 1019.1 hPa 0.0 l/m 0.2 km/h (0 Bft) N-NW 3.1 C 3.1 C
03.12.2003 21:00 2.9 C 100 % 1019.1 hPa 0.0 l/m 0.1 km/h (0 Bft) N 2.9 C 2.9 C
03.12.2003 22:00 2.6 C 100 % 1019.1 hPa 0.0 l/m 0.0 km/h (0 Bft) N 2.5 C 2.6 C
03.12.2003 23:00 2.3 C 100 % 1019.9 hPa 0.0 l/m 0.7 km/h (0 Bft) N-NO 2.3 C 2.1 C
04.12.2003 00:00 1.6 C 100 % 1020.1 hPa 0.0 l/m 1.6 km/h (1 Bft) SO 1.6 C 1.1 C
04.12.2003 01:00 1.6 C 100 % 1020.1 hPa 0.0 l/m 6.2 km/h (2 Bft) O-SO 1.5 C -0.2 C
04.12.2003 02:00 1.5 C 98 % 1020.1 hPa 0.0 l/m 0.5 km/h (0 Bft) O 1.3 C 1.4 C
04.12.2003 03:00 1.5 C 100 % 1020.1 hPa 0.0 l/m 0.0 km/h (0 Bft) N 1.5 C 1.5 C
04.12.2003 04:00 2.1 C 100 % 1020.1 hPa 0.0 l/m 1.7 km/h (1 Bft) O 2.1 C 1.7 C
04.12.2003 05:00 2.4 C 100 % 1020.1 hPa 0.0 l/m 3.0 km/h (1 Bft) O-SO 2.4 C 1.6 C
04.12.2003 06:00 2.7 C 100 % 1020.1 hPa 0.0 l/m 1.4 km/h (1 Bft) O-NO 2.7 C 2.3 C
04.12.2003 07:00 3.0 C 97 % 1020.1 hPa 0.0 l/m 5.1 km/h (1 Bft) O 2.5 C 2.1 C
04.12.2003 08:00 3.1 C 90 % 1020.1 hPa 0.0 l/m 5.7 km/h (1 Bft) O 1.7 C 2.0 C
04.12.2003 09:00 3.3 C 85 % 1020.4 hPa 0.0 l/m 4.0 km/h (1 Bft) NO 1.0 C 2.5 C
04.12.2003 10:00 3.8 C 82 % 1021.2 hPa 0.0 l/m 5.1 km/h (1 Bft) NO 0.9 C 2.7 C
04.12.2003 11:00 4.6 C 78 % 1020.3 hPa 0.0 l/m 6.9 km/h (2 Bft) O-SO 1.1 C 3.2 C
04.12.2003 12:00 4.7 C 77 % 1020.1 hPa 0.0 l/m 12.1 km/h (2 Bft) O-SO 1.1 C 1.9 C
04.12.2003 13:00 4.9 C 75 % 1020.1 hPa 0.0 l/m 14.7 km/h (3 Bft) O-SO 0.9 C 1.8 C
04.12.2003 14:00 5.2 C 75 % 1020.4 hPa 0.0 l/m 11.4 km/h (2 Bft) O-SO 1.0 C 2.7 C
04.12.2003 15:00 5.1 C 77 % 1021.4 hPa 0.0 l/m 2.1 km/h (1 Bft) O-SO 1.3 C 4.8 C
04.12.2003 16:00 4.0 C 79 % 1022.3 hPa 0.0 l/m 1.3 km/h (1 Bft) O-SO 0.6 C 3.8 C
04.12.2003 17:00 3.3 C 85 % 1023.9 hPa 0.0 l/m 2.5 km/h (1 Bft) NW 1.0 C 2.8 C
04.12.2003 18:00 2.8 C 87 % 1024.6 hPa 0.0 l/m 3.4 km/h (1 Bft) O-SO 0.9 C 1.8 C
04.12.2003 19:00 2.2 C 91 % 1025.8 hPa 0.0 l/m 3.1 km/h (1 Bft) O-SO 1.0 C 1.6 C
04.12.2003 20:00 2.2 C 92 % 1026.9 hPa 0.0 l/m 1.8 km/h (1 Bft) O-SO 1.0 C 1.8 C
04.12.2003 21:00 1.4 C 93 % 1027.4 hPa 0.0 l/m 1.6 km/h (1 Bft) O-SO 0.3 C 1.1 C
04.12.2003 22:00 0.8 C 97 % 1027.5 hPa 0.0 l/m 4.3 km/h (1 Bft) O-SO 0.4 C -0.3 C
04.12.2003 23:00 0.0 C 94 % 1028.5 hPa 0.0 l/m 0.2 km/h (0 Bft) O-SO -0.8 C 0.0 C
05.12.2003 00:00 -0.3 C 95 % 1028.5 hPa 0.0 l/m 1.0 km/h (0 Bft) O-SO -1.0 C -0.6 C
05.12.2003 01:00 -0.6 C 94 % 1028.5 hPa 0.0 l/m 0.1 km/h (0 Bft) O-SO -1.4 C -0.6 C
05.12.2003 02:00 0.2 C 100 % 1028.5 hPa 0.0 l/m 0.0 km/h (0 Bft) N 0.2 C 0.2 C
05.12.2003 03:00 0.7 C 100 % 1028.5 hPa 0.0 l/m 2.0 km/h (1 Bft) O-SO 0.7 C 0.2 C
05.12.2003 04:00 0.7 C 100 % 1028.5 hPa 0.0 l/m 3.6 km/h (1 Bft) O-SO 0.7 C -0.3 C
05.12.2003 05:00 0.6 C 100 % 1028.5 hPa 0.0 l/m 6.0 km/h (2 Bft) O-SO 0.6 C -1.1 C
05.12.2003 06:00 1.0 C 100 % 1028.5 hPa 0.0 l/m 0.3 km/h (0 Bft) N 1.0 C 0.9 C
05.12.2003 07:00 1.0 C 100 % 1028.5 hPa 0.0 l/m 3.4 km/h (1 Bft) O-SO 1.0 C 0.1 C
05.12.2003 08:00 1.0 C 100 % 1028.5 hPa 0.0 l/m 3.9 km/h (1 Bft) O-SO 1.0 C -0.1 C
05.12.2003 09:00 1.0 C 100 % 1028.5 hPa 0.0 l/m 3.1 km/h (1 Bft) O-SO 1.0 C 0.1 C
05.12.2003 10:00 1.5 C 100 % 1028.9 hPa 0.0 l/m 1.9 km/h (1 Bft) O-SO 1.5 C 1.0 C
05.12.2003 11:00 2.0 C 100 % 1028.2 hPa 0.0 l/m 1.7 km/h (1 Bft) O 2.0 C 1.7 C
05.12.2003 12:00 2.5 C 100 % 1027.4 hPa 0.0 l/m 0.3 km/h (0 Bft) O 2.5 C 2.5 C
05.12.2003 13:00 2.6 C 96 % 1027.4 hPa 0.0 l/m 0.2 km/h (0 Bft) O 2.1 C 2.6 C
05.12.2003 14:00 2.6 C 95 % 1027.4 hPa 0.0 l/m 1.0 km/h (0 Bft) O 1.9 C 2.5 C
05.12.2003 15:00 2.3 C 97 % 1027.4 hPa 0.0 l/m 2.0 km/h (1 Bft) NW 1.8 C 1.8 C
05.12.2003 16:00 2.3 C 98 % 1028.3 hPa 0.0 l/m 1.9 km/h (1 Bft) W-NW 2.0 C 1.7 C
05.12.2003 17:00 2.2 C 99 % 1028.5 hPa 0.0 l/m 1.3 km/h (1 Bft) N-NW 2.1 C 2.1 C
05.12.2003 18:00 2.3 C 99 % 1028.5 hPa 0.0 l/m 0.5 km/h (0 Bft) N-NW 2.1 C 2.2 C
05.12.2003 19:00 2.2 C 98 % 1028.5 hPa 0.0 l/m 1.1 km/h (1 Bft) N-NW 1.9 C 2.0 C
05.12.2003 20:00 2.0 C 100 % 1028.5 hPa 0.0 l/m 2.2 km/h (1 Bft) O-SO 2.0 C 1.4 C
05.12.2003 21:00 2.0 C 100 % 1028.4 hPa 0.0 l/m 1.0 km/h (0 Bft) SO 2.0 C 1.9 C
05.12.2003 22:00 1.9 C 96 % 1027.4 hPa 0.0 l/m 4.9 km/h (1 Bft) O-SO 1.3 C 0.5 C
05.12.2003 23:00 1.7 C 100 % 1027.2 hPa 0.0 l/m 0.9 km/h (0 Bft) O-SO 1.7 C 1.5 C
06.12.2003 00:00 1.8 C 100 % 1026.4 hPa 0.0 l/m 0.6 km/h (0 Bft) SO 1.8 C 1.7 C
06.12.2003 01:00 1.8 C 96 % 1025.6 hPa 0.0 l/m 0.9 km/h (0 Bft) SO 1.1 C 1.6 C
06.12.2003 02:00 1.8 C 99 % 1025.3 hPa 0.0 l/m 0.8 km/h (0 Bft) SO 1.6 C 1.6 C
06.12.2003 03:00 1.8 C 100 % 1024.6 hPa 0.0 l/m 0.2 km/h (0 Bft) N 1.8 C 1.8 C
06.12.2003 04:00 1.9 C 100 % 1024.3 hPa 0.0 l/m 0.9 km/h (0 Bft) W-SW 1.9 C 1.7 C
06.12.2003 05:00 1.8 C 100 % 1024.3 hPa 0.0 l/m 0.7 km/h (0 Bft) W-SW 1.8 C 1.8 C
06.12.2003 06:00 1.6 C 100 % 1024.3 hPa 0.0 l/m 0.7 km/h (0 Bft) W-SW 1.6 C 1.6 C
06.12.2003 07:00 1.4 C 100 % 1024.3 hPa 0.0 l/m 0.1 km/h (0 Bft) N 1.4 C 1.4 C
06.12.2003 08:00 1.4 C 100 % 1024.3 hPa 0.0 l/m 0.9 km/h (0 Bft) NW 1.4 C 1.2 C
06.12.2003 09:00 1.5 C 100 % 1024.3 hPa 0.0 l/m 0.4 km/h (0 Bft) N-NW 1.5 C 1.5 C
06.12.2003 10:00 1.4 C 100 % 1024.3 hPa 0.0 l/m 1.3 km/h (1 Bft) W-NW 1.3 C 1.1 C
06.12.2003 11:00 1.8 C 94 % 1024.3 hPa 0.0 l/m 0.3 km/h (0 Bft) N-NW 0.9 C 1.8 C
06.12.2003 12:00 1.8 C 97 % 1023.0 hPa 0.0 l/m 4.6 km/h (1 Bft) NW 1.4 C 0.6 C
06.12.2003 13:00 2.2 C 94 % 1022.2 hPa 0.0 l/m 1.2 km/h (1 Bft) NW 1.3 C 1.9 C
06.12.2003 14:00 2.4 C 92 % 1021.6 hPa 0.0 l/m 0.2 km/h (0 Bft) N 1.2 C 2.4 C
06.12.2003 15:00 2.3 C 92 % 1021.2 hPa 0.0 l/m 1.0 km/h (0 Bft) N 1.2 C 2.1 C
06.12.2003 16:00 2.2 C 87 % 1021.2 hPa 0.0 l/m 0.0 km/h (0 Bft) N 0.2 C 2.2 C
06.12.2003 17:00 2.1 C 90 % 1022.2 hPa 0.0 l/m 0.0 km/h (0 Bft) N 0.5 C 2.1 C
06.12.2003 18:00 2.1 C 91 % 1022.8 hPa 1.0 l/m 0.0 km/h (0 Bft) N 0.9 C 2.1 C
06.12.2003 19:00 2.5 C 96 % 1023.3 hPa 0.7 l/m 0.0 km/h (0 Bft) NO 1.9 C 2.5 C
06.12.2003 20:00 2.8 C 93 % 1024.0 hPa 0.3 l/m 2.3 km/h (1 Bft) NO 1.8 C 2.4 C
06.12.2003 21:00 2.6 C 88 % 1024.3 hPa 0.0 l/m 2.1 km/h (1 Bft) NO 0.8 C 2.2 C
06.12.2003 22:00 2.5 C 78 % 1024.3 hPa 0.0 l/m 6.8 km/h (2 Bft) O-NO -0.9 C 1.0 C
06.12.2003 23:00 1.5 C 71 % 1024.3 hPa 0.0 l/m 5.7 km/h (1 Bft) N-NO -3.2 C 0.2 C
07.12.2003 00:00 0.1 C 67 % 1024.3 hPa 0.0 l/m 6.9 km/h (2 Bft) NO -5.3 C -2.0 C
07.12.2003 01:00 -0.4 C 65 % 1024.3 hPa 0.0 l/m 8.4 km/h (2 Bft) N-NO -6.2 C -2.7 C
07.12.2003 02:00 -0.9 C 63 % 1024.3 hPa 0.0 l/m 8.4 km/h (2 Bft) NO -7.1 C -3.1 C
07.12.2003 03:00 -1.2 C 61 % 1024.8 hPa 0.0 l/m 10.5 km/h (2 Bft) NO -7.6 C -4.4 C
07.12.2003 04:00 -1.8 C 63 % 1025.3 hPa 0.0 l/m 7.0 km/h (2 Bft) NO -8.0 C -3.8 C
07.12.2003 05:00 -1.7 C 63 % 1025.3 hPa 0.0 l/m 10.9 km/h (2 Bft) N-NO -7.8 C -4.7 C
07.12.2003 06:00 -2.0 C 66 % 1025.3 hPa 0.0 l/m 9.9 km/h (2 Bft) N-NO -7.5 C -5.3 C
07.12.2003 07:00 -2.2 C 68 % 1025.3 hPa 0.0 l/m 5.9 km/h (2 Bft) NO -7.3 C -3.9 C
07.12.2003 08:00 -2.3 C 67 % 1025.3 hPa 0.0 l/m 6.3 km/h (2 Bft) NO -7.5 C -4.3 C
07.12.2003 09:00 -1.3 C 65 % 1025.3 hPa 0.0 l/m 20.0 km/h (4 Bft) O -7.0 C -6.8 C
07.12.2003 10:00 -0.2 C 60 % 1025.3 hPa 0.0 l/m 19.8 km/h (3 Bft) O -7.1 C -5.2 C
07.12.2003 11:00 0.8 C 55 % 1025.1 hPa 0.0 l/m 23.6 km/h (4 Bft) O -7.1 C -4.6 C
07.12.2003 12:00 1.9 C 51 % 1024.3 hPa 0.0 l/m 23.0 km/h (4 Bft) O -7.2 C -3.2 C
07.12.2003 13:00 2.7 C 45 % 1024.3 hPa 0.0 l/m 13.4 km/h (3 Bft) O-NO -7.9 C -0.5 C
07.12.2003 14:00 2.8 C 45 % 1023.6 hPa 0.0 l/m 14.0 km/h (3 Bft) NO -8.0 C -0.1 C
07.12.2003 15:00 2.5 C 43 % 1023.3 hPa 0.0 l/m 21.2 km/h (4 Bft) O-NO -8.7 C -2.0 C
07.12.2003 16:00 1.3 C 45 % 1024.2 hPa 0.0 l/m 16.1 km/h (3 Bft) O -9.2 C -2.7 C
07.12.2003 17:00 0.1 C 51 % 1024.9 hPa 0.0 l/m 8.7 km/h (2 Bft) O -8.9 C -2.1 C
07.12.2003 18:00 -0.8 C 54 % 1025.3 hPa 0.0 l/m 5.7 km/h (1 Bft) O -8.9 C -2.4 C
07.12.2003 19:00 -1.2 C 57 % 1025.3 hPa 0.0 l/m 2.9 km/h (1 Bft) NO -8.7 C -1.9 C
07.12.2003 20:00 -1.7 C 60 % 1026.3 hPa 0.0 l/m 5.3 km/h (1 Bft) O -8.5 C -3.2 C
07.12.2003 21:00 -2.4 C 65 % 1026.8 hPa 0.0 l/m 0.9 km/h (0 Bft) O -8.2 C -2.4 C
07.12.2003 22:00 -2.9 C 68 % 1027.4 hPa 0.0 l/m 0.2 km/h (0 Bft) N -7.9 C -2.9 C
07.12.2003 23:00 -3.1 C 69 % 1027.4 hPa 0.0 l/m 3.2 km/h (1 Bft) O-SO -8.0 C -4.2 C
Min-Datum _ 07.12.03 07.12.03 01.12.03 - 01.12.03 - 07.12.03 07.12.03
_ Min-Zeit 22:37 16:04 17:04 - 00:01 - 16:10 09:19
Minimum _ -3.5 C 41 % 1005.6 hPa - 0.0 km/h (0 Bft) - -9.9 C -8.6 C
Max-Datum _ 02.12.03 01.12.03 05.12.03 06.12.03 07.12.03 - 02.12.03 02.12.03
_ Max-Zeit 14:35 00:07 09:58 18:04 16:04 - 09:10 14:35
Maximum _ 10.1 C 100 % 1029.5 hPa 1.0 l/m 38.4 km/h
O (5 Bft)
- 4.9 C 10.1 C
Durchschnitt _ 2.7 C 89 % 1019.9 hPa #2.1 l/m 3.0 km/h (1 Bft) O-SO 0.8 C 2.0 C

Durchschnitt Minimum Temp.2.3 C
Durchschnitt Maximum Temp.3.0 C
© Kaiko 2003